sensor_id;sensor_type;location;lat;lon;timestamp;P1;durP1;ratioP1;P2;durP2;ratioP2
21671;SDS011;10997;52.242;8.168;2023-08-30T00:04:09;11.00;;;8.25;;
21671;SDS011;10997;52.242;8.168;2023-08-30T00:09:09;12.05;;;8.98;;
21671;SDS011;10997;52.242;8.168;2023-08-30T00:14:10;15.63;;;9.23;;
21671;SDS011;10997;52.242;8.168;2023-08-30T00:19:10;9.75;;;8.75;;
21671;SDS011;10997;52.242;8.168;2023-08-30T00:24:11;13.27;;;9.05;;
21671;SDS011;10997;52.242;8.168;2023-08-30T00:29:12;9.30;;;8.23;;
21671;SDS011;10997;52.242;8.168;2023-08-30T00:34:12;11.95;;;9.65;;
21671;SDS011;10997;52.242;8.168;2023-08-30T00:39:13;17.90;;;13.77;;
21671;SDS011;10997;52.242;8.168;2023-08-30T00:44:14;18.55;;;14.48;;
21671;SDS011;10997;52.242;8.168;2023-08-30T00:49:15;20.85;;;14.43;;
21671;SDS011;10997;52.242;8.168;2023-08-30T00:54:15;15.88;;;13.90;;
21671;SDS011;10997;52.242;8.168;2023-08-30T00:59:16;18.83;;;16.23;;
21671;SDS011;10997;52.242;8.168;2023-08-30T01:04:17;14.80;;;11.70;;
21671;SDS011;10997;52.242;8.168;2023-08-30T01:09:19;12.95;;;11.45;;
21671;SDS011;10997;52.242;8.168;2023-08-30T01:14:25;13.45;;;12.00;;
21671;SDS011;10997;52.242;8.168;2023-08-30T01:19:48;20.60;;;17.85;;
21671;SDS011;10997;52.242;8.168;2023-08-30T01:24:58;17.25;;;15.25;;
21671;SDS011;10997;52.242;8.168;2023-08-30T01:30:21;15.83;;;12.33;;
21671;SDS011;10997;52.242;8.168;2023-08-30T01:35:24;13.40;;;11.00;;
21671;SDS011;10997;52.242;8.168;2023-08-30T01:40:25;14.65;;;12.95;;
21671;SDS011;10997;52.242;8.168;2023-08-30T01:45:28;13.85;;;12.32;;
21671;SDS011;10997;52.242;8.168;2023-08-30T01:50:29;18.48;;;12.90;;
21671;SDS011;10997;52.242;8.168;2023-08-30T01:55:30;17.88;;;13.30;;
21671;SDS011;10997;52.242;8.168;2023-08-30T02:00:32;14.82;;;13.18;;
21671;SDS011;10997;52.242;8.168;2023-08-30T02:05:32;16.42;;;13.70;;
21671;SDS011;10997;52.242;8.168;2023-08-30T02:10:36;21.85;;;17.92;;
21671;SDS011;10997;52.242;8.168;2023-08-30T02:15:40;23.30;;;20.27;;
21671;SDS011;10997;52.242;8.168;2023-08-30T02:20:41;22.58;;;20.05;;
21671;SDS011;10997;52.242;8.168;2023-08-30T02:25:42;23.08;;;20.33;;
21671;SDS011;10997;52.242;8.168;2023-08-30T02:30:42;21.25;;;18.88;;
21671;SDS011;10997;52.242;8.168;2023-08-30T02:35:43;23.27;;;18.33;;
21671;SDS011;10997;52.242;8.168;2023-08-30T02:40:44;23.00;;;18.13;;
21671;SDS011;10997;52.242;8.168;2023-08-30T02:45:44;20.55;;;17.65;;
21671;SDS011;10997;52.242;8.168;2023-08-30T02:50:46;19.73;;;17.10;;
21671;SDS011;10997;52.242;8.168;2023-08-30T02:55:47;19.67;;;17.52;;
21671;SDS011;10997;52.242;8.168;2023-08-30T03:00:48;18.02;;;16.13;;
21671;SDS011;10997;52.242;8.168;2023-08-30T03:05:48;21.73;;;17.67;;
21671;SDS011;10997;52.242;8.168;2023-08-30T03:10:49;23.23;;;18.95;;
21671;SDS011;10997;52.242;8.168;2023-08-30T03:15:49;24.38;;;19.60;;
21671;SDS011;10997;52.242;8.168;2023-08-30T03:20:59;25.00;;;20.92;;
21671;SDS011;10997;52.242;8.168;2023-08-30T03:26:10;25.75;;;21.33;;
21671;SDS011;10997;52.242;8.168;2023-08-30T03:36:17;27.70;;;21.60;;
21671;SDS011;10997;52.242;8.168;2023-08-30T03:41:18;23.23;;;19.88;;
21671;SDS011;10997;52.242;8.168;2023-08-30T03:46:18;22.70;;;19.80;;
21671;SDS011;10997;52.242;8.168;2023-08-30T03:51:19;23.13;;;20.13;;
21671;SDS011;10997;52.242;8.168;2023-08-30T03:56:20;26.98;;;20.25;;
21671;SDS011;10997;52.242;8.168;2023-08-30T04:01:20;23.98;;;20.55;;
21671;SDS011;10997;52.242;8.168;2023-08-30T04:06:21;23.23;;;19.65;;
21671;SDS011;10997;52.242;8.168;2023-08-30T04:11:23;23.27;;;20.35;;
21671;SDS011;10997;52.242;8.168;2023-08-30T04:16:23;29.25;;;22.15;;
21671;SDS011;10997;52.242;8.168;2023-08-30T04:21:24;28.15;;;22.73;;
21671;SDS011;10997;52.242;8.168;2023-08-30T04:26:25;33.85;;;26.25;;
21671;SDS011;10997;52.242;8.168;2023-08-30T04:31:25;27.75;;;24.13;;
21671;SDS011;10997;52.242;8.168;2023-08-30T04:36:26;33.58;;;24.63;;
21671;SDS011;10997;52.242;8.168;2023-08-30T04:41:26;30.80;;;24.60;;
21671;SDS011;10997;52.242;8.168;2023-08-30T04:46:27;29.83;;;24.52;;
21671;SDS011;10997;52.242;8.168;2023-08-30T04:51:27;27.92;;;23.92;;
21671;SDS011;10997;52.242;8.168;2023-08-30T04:56:28;29.00;;;25.15;;
21671;SDS011;10997;52.242;8.168;2023-08-30T05:01:31;35.53;;;26.77;;
21671;SDS011;10997;52.242;8.168;2023-08-30T05:06:32;32.67;;;25.00;;
21671;SDS011;10997;52.242;8.168;2023-08-30T05:11:33;33.35;;;27.05;;
21671;SDS011;10997;52.242;8.168;2023-08-30T05:16:33;31.33;;;25.77;;
21671;SDS011;10997;52.242;8.168;2023-08-30T05:21:34;37.55;;;30.33;;
21671;SDS011;10997;52.242;8.168;2023-08-30T05:26:34;38.85;;;30.48;;
21671;SDS011;10997;52.242;8.168;2023-08-30T05:31:35;36.50;;;30.35;;
21671;SDS011;10997;52.242;8.168;2023-08-30T05:36:36;36.50;;;30.55;;
21671;SDS011;10997;52.242;8.168;2023-08-30T05:41:36;36.92;;;29.73;;
21671;SDS011;10997;52.242;8.168;2023-08-30T05:46:37;36.60;;;28.45;;
21671;SDS011;10997;52.242;8.168;2023-08-30T05:51:37;33.47;;;27.83;;
21671;SDS011;10997;52.242;8.168;2023-08-30T05:56:38;32.33;;;25.20;;
21671;SDS011;10997;52.242;8.168;2023-08-30T06:01:39;32.13;;;26.15;;
21671;SDS011;10997;52.242;8.168;2023-08-30T06:06:39;34.35;;;25.88;;
21671;SDS011;10997;52.242;8.168;2023-08-30T06:11:40;33.53;;;26.27;;
21671;SDS011;10997;52.242;8.168;2023-08-30T06:16:40;30.23;;;24.65;;
21671;SDS011;10997;52.242;8.168;2023-08-30T06:21:44;31.10;;;24.23;;
21671;SDS011;10997;52.242;8.168;2023-08-30T06:26:45;32.13;;;24.15;;
21671;SDS011;10997;52.242;8.168;2023-08-30T06:31:45;32.38;;;22.65;;
21671;SDS011;10997;52.242;8.168;2023-08-30T06:36:47;26.10;;;21.75;;
21671;SDS011;10997;52.242;8.168;2023-08-30T06:41:48;26.20;;;20.88;;
21671;SDS011;10997;52.242;8.168;2023-08-30T06:46:48;24.52;;;19.80;;
21671;SDS011;10997;52.242;8.168;2023-08-30T06:51:49;26.40;;;19.67;;
21671;SDS011;10997;52.242;8.168;2023-08-30T06:56:57;22.42;;;18.30;;
21671;SDS011;10997;52.242;8.168;2023-08-30T07:01:58;21.35;;;17.60;;
21671;SDS011;10997;52.242;8.168;2023-08-30T07:06:59;24.73;;;18.20;;
21671;SDS011;10997;52.242;8.168;2023-08-30T07:11:59;20.75;;;17.23;;
21671;SDS011;10997;52.242;8.168;2023-08-30T07:17:00;21.10;;;17.08;;
21671;SDS011;10997;52.242;8.168;2023-08-30T07:22:01;22.63;;;16.38;;
21671;SDS011;10997;52.242;8.168;2023-08-30T07:27:03;20.25;;;15.68;;
21671;SDS011;10997;52.242;8.168;2023-08-30T07:32:03;20.45;;;17.05;;
21671;SDS011;10997;52.242;8.168;2023-08-30T07:37:04;20.88;;;17.13;;
21671;SDS011;10997;52.242;8.168;2023-08-30T07:42:17;23.08;;;17.13;;
21671;SDS011;10997;52.242;8.168;2023-08-30T07:47:17;19.65;;;16.83;;
21671;SDS011;10997;52.242;8.168;2023-08-30T07:52:18;20.90;;;16.88;;
21671;SDS011;10997;52.242;8.168;2023-08-30T07:57:18;22.45;;;15.88;;
21671;SDS011;10997;52.242;8.168;2023-08-30T08:02:19;22.15;;;15.68;;
21671;SDS011;10997;52.242;8.168;2023-08-30T08:07:20;21.13;;;15.02;;
21671;SDS011;10997;52.242;8.168;2023-08-30T08:12:20;18.23;;;14.85;;
21671;SDS011;10997;52.242;8.168;2023-08-30T08:17:21;19.42;;;15.38;;
21671;SDS011;10997;52.242;8.168;2023-08-30T08:22:21;21.48;;;15.13;;
21671;SDS011;10997;52.242;8.168;2023-08-30T08:27:24;19.27;;;14.35;;
21671;SDS011;10997;52.242;8.168;2023-08-30T08:32:25;24.48;;;18.00;;
21671;SDS011;10997;52.242;8.168;2023-08-30T08:37:26;29.23;;;21.17;;
21671;SDS011;10997;52.242;8.168;2023-08-30T08:42:26;25.83;;;20.15;;
21671;SDS011;10997;52.242;8.168;2023-08-30T08:47:27;25.15;;;20.15;;
21671;SDS011;10997;52.242;8.168;2023-08-30T08:52:30;28.58;;;21.05;;
21671;SDS011;10997;52.242;8.168;2023-08-30T08:57:31;26.40;;;20.38;;
21671;SDS011;10997;52.242;8.168;2023-08-30T09:02:31;27.20;;;19.73;;
21671;SDS011;10997;52.242;8.168;2023-08-30T09:07:32;27.25;;;20.55;;
21671;SDS011;10997;52.242;8.168;2023-08-30T09:12:34;27.02;;;19.98;;
21671;SDS011;10997;52.242;8.168;2023-08-30T09:17:38;27.75;;;21.00;;
21671;SDS011;10997;52.242;8.168;2023-08-30T09:22:40;27.83;;;20.75;;
21671;SDS011;10997;52.242;8.168;2023-08-30T09:27:41;32.28;;;21.15;;
21671;SDS011;10997;52.242;8.168;2023-08-30T09:32:42;28.45;;;21.13;;
21671;SDS011;10997;52.242;8.168;2023-08-30T09:37:45;24.45;;;20.55;;
21671;SDS011;10997;52.242;8.168;2023-08-30T09:42:46;28.40;;;22.13;;
21671;SDS011;10997;52.242;8.168;2023-08-30T09:47:49;26.02;;;20.70;;
21671;SDS011;10997;52.242;8.168;2023-08-30T09:52:50;27.30;;;21.40;;
21671;SDS011;10997;52.242;8.168;2023-08-30T09:57:52;29.10;;;22.02;;
21671;SDS011;10997;52.242;8.168;2023-08-30T10:02:53;28.15;;;21.77;;
21671;SDS011;10997;52.242;8.168;2023-08-30T10:07:55;25.92;;;21.05;;
21671;SDS011;10997;52.242;8.168;2023-08-30T10:12:56;27.15;;;21.45;;
21671;SDS011;10997;52.242;8.168;2023-08-30T10:17:57;24.70;;;20.52;;
21671;SDS011;10997;52.242;8.168;2023-08-30T10:23:00;29.23;;;21.27;;
21671;SDS011;10997;52.242;8.168;2023-08-30T10:28:01;25.08;;;20.40;;
21671;SDS011;10997;52.242;8.168;2023-08-30T10:33:02;24.23;;;19.75;;
21671;SDS011;10997;52.242;8.168;2023-08-30T10:38:11;21.85;;;17.65;;
21671;SDS011;10997;52.242;8.168;2023-08-30T10:43:12;23.00;;;16.90;;
21671;SDS011;10997;52.242;8.168;2023-08-30T10:48:13;19.23;;;14.27;;
21671;SDS011;10997;52.242;8.168;2023-08-30T10:53:13;18.77;;;13.95;;
21671;SDS011;10997;52.242;8.168;2023-08-30T10:58:14;16.58;;;13.98;;
21671;SDS011;10997;52.242;8.168;2023-08-30T11:03:15;16.85;;;11.77;;
21671;SDS011;10997;52.242;8.168;2023-08-30T11:08:16;15.48;;;11.77;;
21671;SDS011;10997;52.242;8.168;2023-08-30T11:13:17;14.68;;;11.27;;
21671;SDS011;10997;52.242;8.168;2023-08-30T11:18:18;14.15;;;11.20;;
21671;SDS011;10997;52.242;8.168;2023-08-30T11:23:19;12.77;;;10.30;;
21671;SDS011;10997;52.242;8.168;2023-08-30T11:28:23;15.95;;;11.52;;
21671;SDS011;10997;52.242;8.168;2023-08-30T11:33:24;13.25;;;10.32;;
21671;SDS011;10997;52.242;8.168;2023-08-30T11:38:25;11.45;;;9.77;;
21671;SDS011;10997;52.242;8.168;2023-08-30T11:43:26;15.70;;;10.85;;
21671;SDS011;10997;52.242;8.168;2023-08-30T11:48:28;13.55;;;9.95;;
21671;SDS011;10997;52.242;8.168;2023-08-30T11:53:29;13.70;;;10.27;;
21671;SDS011;10997;52.242;8.168;2023-08-30T11:58:36;13.35;;;9.68;;
21671;SDS011;10997;52.242;8.168;2023-08-30T12:03:37;12.73;;;10.23;;
21671;SDS011;10997;52.242;8.168;2023-08-30T12:08:38;14.13;;;9.93;;
21671;SDS011;10997;52.242;8.168;2023-08-30T12:13:38;17.15;;;10.63;;
21671;SDS011;10997;52.242;8.168;2023-08-30T12:18:39;13.27;;;11.15;;
21671;SDS011;10997;52.242;8.168;2023-08-30T12:23:39;19.67;;;12.02;;
21671;SDS011;10997;52.242;8.168;2023-08-30T12:28:40;15.40;;;13.80;;
21671;SDS011;10997;52.242;8.168;2023-08-30T12:33:44;16.85;;;15.02;;
21671;SDS011;10997;52.242;8.168;2023-08-30T12:38:44;19.42;;;17.40;;
21671;SDS011;10997;52.242;8.168;2023-08-30T12:43:45;22.30;;;19.90;;
21671;SDS011;10997;52.242;8.168;2023-08-30T12:48:45;21.90;;;19.67;;
21671;SDS011;10997;52.242;8.168;2023-08-30T12:53:46;21.02;;;18.50;;
21671;SDS011;10997;52.242;8.168;2023-08-30T12:58:47;24.65;;;18.35;;
21671;SDS011;10997;52.242;8.168;2023-08-30T13:03:47;19.30;;;16.73;;
21671;SDS011;10997;52.242;8.168;2023-08-30T13:08:48;17.63;;;15.82;;
21671;SDS011;10997;52.242;8.168;2023-08-30T13:13:48;14.25;;;12.32;;
21671;SDS011;10997;52.242;8.168;2023-08-30T13:18:49;13.32;;;11.63;;
21671;SDS011;10997;52.242;8.168;2023-08-30T13:23:50;12.70;;;10.65;;
21671;SDS011;10997;52.242;8.168;2023-08-30T13:28:50;14.00;;;12.48;;
21671;SDS011;10997;52.242;8.168;2023-08-30T13:33:52;13.73;;;12.30;;
21671;SDS011;10997;52.242;8.168;2023-08-30T13:38:53;14.23;;;12.73;;
21671;SDS011;10997;52.242;8.168;2023-08-30T13:43:53;14.40;;;12.90;;
21671;SDS011;10997;52.242;8.168;2023-08-30T13:48:54;15.18;;;13.35;;
21671;SDS011;10997;52.242;8.168;2023-08-30T13:53:55;14.02;;;12.60;;
21671;SDS011;10997;52.242;8.168;2023-08-30T13:58:56;13.40;;;12.10;;
21671;SDS011;10997;52.242;8.168;2023-08-30T14:03:56;13.95;;;12.65;;
21671;SDS011;10997;52.242;8.168;2023-08-30T14:08:57;15.73;;;14.02;;
21671;SDS011;10997;52.242;8.168;2023-08-30T14:13:58;15.30;;;13.75;;
21671;SDS011;10997;52.242;8.168;2023-08-30T14:18:58;14.45;;;12.80;;
21671;SDS011;10997;52.242;8.168;2023-08-30T14:24:00;13.05;;;11.82;;
21671;SDS011;10997;52.242;8.168;2023-08-30T14:29:00;12.50;;;11.13;;
21671;SDS011;10997;52.242;8.168;2023-08-30T14:34:01;12.50;;;11.40;;
21671;SDS011;10997;52.242;8.168;2023-08-30T14:39:02;12.52;;;11.32;;
21671;SDS011;10997;52.242;8.168;2023-08-30T14:44:03;10.93;;;9.93;;
21671;SDS011;10997;52.242;8.168;2023-08-30T14:49:04;10.23;;;9.32;;
21671;SDS011;10997;52.242;8.168;2023-08-30T14:54:04;10.68;;;9.65;;
21671;SDS011;10997;52.242;8.168;2023-08-30T14:59:05;11.13;;;10.02;;
21671;SDS011;10997;52.242;8.168;2023-08-30T15:04:05;11.85;;;10.75;;
21671;SDS011;10997;52.242;8.168;2023-08-30T15:09:08;13.50;;;12.20;;
21671;SDS011;10997;52.242;8.168;2023-08-30T15:14:10;14.45;;;13.05;;
21671;SDS011;10997;52.242;8.168;2023-08-30T15:19:10;16.23;;;14.65;;
21671;SDS011;10997;52.242;8.168;2023-08-30T15:24:11;16.35;;;14.85;;
21671;SDS011;10997;52.242;8.168;2023-08-30T15:29:12;17.92;;;16.17;;
21671;SDS011;10997;52.242;8.168;2023-08-30T15:34:13;19.42;;;17.58;;
21671;SDS011;10997;52.242;8.168;2023-08-30T15:39:13;20.75;;;18.55;;
21671;SDS011;10997;52.242;8.168;2023-08-30T15:44:18;21.48;;;19.38;;
21671;SDS011;10997;52.242;8.168;2023-08-30T15:49:18;22.20;;;20.05;;
21671;SDS011;10997;52.242;8.168;2023-08-30T15:54:19;21.65;;;19.55;;
21671;SDS011;10997;52.242;8.168;2023-08-30T15:59:19;22.67;;;20.33;;
21671;SDS011;10997;52.242;8.168;2023-08-30T16:04:20;23.00;;;20.90;;
21671;SDS011;10997;52.242;8.168;2023-08-30T16:09:21;23.10;;;20.80;;
21671;SDS011;10997;52.242;8.168;2023-08-30T16:14:21;26.83;;;22.88;;
21671;SDS011;10997;52.242;8.168;2023-08-30T16:19:22;25.42;;;22.95;;
21671;SDS011;10997;52.242;8.168;2023-08-30T16:24:24;26.30;;;23.75;;
21671;SDS011;10997;52.242;8.168;2023-08-30T16:29:26;27.15;;;24.55;;
21671;SDS011;10997;52.242;8.168;2023-08-30T16:34:27;26.85;;;24.35;;
21671;SDS011;10997;52.242;8.168;2023-08-30T16:39:27;28.58;;;25.67;;
21671;SDS011;10997;52.242;8.168;2023-08-30T16:44:28;27.67;;;24.98;;
21671;SDS011;10997;52.242;8.168;2023-08-30T16:49:32;27.73;;;25.10;;
21671;SDS011;10997;52.242;8.168;2023-08-30T16:54:32;28.05;;;25.05;;
21671;SDS011;10997;52.242;8.168;2023-08-30T16:59:33;26.73;;;24.00;;
21671;SDS011;10997;52.242;8.168;2023-08-30T17:04:34;27.33;;;24.52;;
21671;SDS011;10997;52.242;8.168;2023-08-30T17:09:36;28.63;;;25.83;;
21671;SDS011;10997;52.242;8.168;2023-08-30T17:14:37;26.50;;;23.90;;
21671;SDS011;10997;52.242;8.168;2023-08-30T17:19:38;26.90;;;24.25;;
21671;SDS011;10997;52.242;8.168;2023-08-30T17:24:38;25.73;;;23.02;;
21671;SDS011;10997;52.242;8.168;2023-08-30T17:29:39;25.88;;;23.38;;
21671;SDS011;10997;52.242;8.168;2023-08-30T17:34:40;26.15;;;23.55;;
21671;SDS011;10997;52.242;8.168;2023-08-30T17:39:40;28.00;;;25.08;;
21671;SDS011;10997;52.242;8.168;2023-08-30T17:44:41;27.90;;;25.13;;
21671;SDS011;10997;52.242;8.168;2023-08-30T17:49:43;28.90;;;26.02;;
21671;SDS011;10997;52.242;8.168;2023-08-30T17:54:43;27.23;;;24.60;;
21671;SDS011;10997;52.242;8.168;2023-08-30T17:59:44;26.52;;;23.83;;
21671;SDS011;10997;52.242;8.168;2023-08-30T18:04:45;27.15;;;24.38;;
21671;SDS011;10997;52.242;8.168;2023-08-30T18:09:45;25.85;;;23.23;;
21671;SDS011;10997;52.242;8.168;2023-08-30T18:14:46;24.75;;;22.25;;
21671;SDS011;10997;52.242;8.168;2023-08-30T18:19:47;23.35;;;20.67;;
21671;SDS011;10997;52.242;8.168;2023-08-30T18:24:48;22.77;;;20.38;;
21671;SDS011;10997;52.242;8.168;2023-08-30T18:29:50;23.40;;;21.00;;
21671;SDS011;10997;52.242;8.168;2023-08-30T18:34:50;24.05;;;21.55;;
21671;SDS011;10997;52.242;8.168;2023-08-30T18:39:51;23.10;;;20.63;;
21671;SDS011;10997;52.242;8.168;2023-08-30T18:44:52;21.38;;;19.17;;
21671;SDS011;10997;52.242;8.168;2023-08-30T18:49:52;20.35;;;18.10;;
21671;SDS011;10997;52.242;8.168;2023-08-30T18:54:53;22.13;;;18.00;;
21671;SDS011;10997;52.242;8.168;2023-08-30T18:59:53;24.80;;;19.73;;
21671;SDS011;10997;52.242;8.168;2023-08-30T19:04:54;22.27;;;19.88;;
21671;SDS011;10997;52.242;8.168;2023-08-30T19:09:54;24.70;;;19.40;;
21671;SDS011;10997;52.242;8.168;2023-08-30T19:14:55;22.95;;;20.15;;
21671;SDS011;10997;52.242;8.168;2023-08-30T19:19:56;25.17;;;19.13;;
21671;SDS011;10997;52.242;8.168;2023-08-30T19:24:56;22.52;;;18.08;;
21671;SDS011;10997;52.242;8.168;2023-08-30T19:29:57;20.48;;;17.77;;
21671;SDS011;10997;52.242;8.168;2023-08-30T19:34:57;22.17;;;19.02;;
21671;SDS011;10997;52.242;8.168;2023-08-30T19:39:58;25.48;;;19.48;;
21671;SDS011;10997;52.242;8.168;2023-08-30T19:45:00;26.15;;;19.65;;
21671;SDS011;10997;52.242;8.168;2023-08-30T19:50:01;27.10;;;20.38;;
21671;SDS011;10997;52.242;8.168;2023-08-30T19:55:01;25.15;;;19.90;;
21671;SDS011;10997;52.242;8.168;2023-08-30T20:00:02;24.65;;;19.40;;
21671;SDS011;10997;52.242;8.168;2023-08-30T20:05:03;23.67;;;18.65;;
21671;SDS011;10997;52.242;8.168;2023-08-30T20:10:05;25.00;;;18.88;;
21671;SDS011;10997;52.242;8.168;2023-08-30T20:15:06;23.10;;;16.85;;
21671;SDS011;10997;52.242;8.168;2023-08-30T20:20:07;22.90;;;15.23;;
21671;SDS011;10997;52.242;8.168;2023-08-30T20:25:08;21.85;;;15.15;;
21671;SDS011;10997;52.242;8.168;2023-08-30T20:30:10;21.63;;;14.75;;
21671;SDS011;10997;52.242;8.168;2023-08-30T20:35:11;22.52;;;14.90;;
21671;SDS011;10997;52.242;8.168;2023-08-30T20:40:12;19.80;;;12.43;;
21671;SDS011;10997;52.242;8.168;2023-08-30T20:45:13;16.90;;;10.98;;
21671;SDS011;10997;52.242;8.168;2023-08-30T20:50:15;17.35;;;10.80;;
21671;SDS011;10997;52.242;8.168;2023-08-30T20:55:15;19.48;;;11.23;;
21671;SDS011;10997;52.242;8.168;2023-08-30T21:00:16;15.85;;;10.68;;
21671;SDS011;10997;52.242;8.168;2023-08-30T21:05:16;19.20;;;9.73;;
21671;SDS011;10997;52.242;8.168;2023-08-30T21:10:17;14.15;;;9.43;;
21671;SDS011;10997;52.242;8.168;2023-08-30T21:15:17;17.05;;;9.75;;
21671;SDS011;10997;52.242;8.168;2023-08-30T21:20:18;15.15;;;8.88;;
21671;SDS011;10997;52.242;8.168;2023-08-30T21:25:19;13.40;;;8.00;;
21671;SDS011;10997;52.242;8.168;2023-08-30T21:30:21;14.77;;;7.10;;
21671;SDS011;10997;52.242;8.168;2023-08-30T21:35:22;13.00;;;7.70;;
21671;SDS011;10997;52.242;8.168;2023-08-30T21:40:22;18.67;;;7.40;;
21671;SDS011;10997;52.242;8.168;2023-08-30T21:45:23;13.38;;;7.55;;
21671;SDS011;10997;52.242;8.168;2023-08-30T21:50:23;14.20;;;7.22;;
21671;SDS011;10997;52.242;8.168;2023-08-30T21:55:24;14.05;;;8.20;;
21671;SDS011;10997;52.242;8.168;2023-08-30T22:00:25;10.50;;;7.03;;
21671;SDS011;10997;52.242;8.168;2023-08-30T22:05:25;11.82;;;7.30;;
21671;SDS011;10997;52.242;8.168;2023-08-30T22:10:26;13.55;;;8.00;;
21671;SDS011;10997;52.242;8.168;2023-08-30T22:15:26;13.65;;;8.32;;
21671;SDS011;10997;52.242;8.168;2023-08-30T22:20:27;10.20;;;7.78;;
21671;SDS011;10997;52.242;8.168;2023-08-30T22:25:28;14.20;;;7.68;;
21671;SDS011;10997;52.242;8.168;2023-08-30T22:30:29;10.93;;;7.72;;
21671;SDS011;10997;52.242;8.168;2023-08-30T22:35:30;15.82;;;8.20;;
21671;SDS011;10997;52.242;8.168;2023-08-30T22:40:30;15.13;;;8.57;;
21671;SDS011;10997;52.242;8.168;2023-08-30T22:45:31;12.50;;;7.75;;
21671;SDS011;10997;52.242;8.168;2023-08-30T22:50:33;13.10;;;8.85;;
21671;SDS011;10997;52.242;8.168;2023-08-30T22:55:35;11.90;;;8.73;;
21671;SDS011;10997;52.242;8.168;2023-08-30T23:00:35;16.38;;;8.20;;
21671;SDS011;10997;52.242;8.168;2023-08-30T23:05:37;14.75;;;8.13;;
21671;SDS011;10997;52.242;8.168;2023-08-30T23:10:41;19.42;;;8.52;;
21671;SDS011;10997;52.242;8.168;2023-08-30T23:15:42;14.77;;;7.72;;
21671;SDS011;10997;52.242;8.168;2023-08-30T23:20:43;15.38;;;7.85;;
21671;SDS011;10997;52.242;8.168;2023-08-30T23:25:44;18.52;;;8.07;;
21671;SDS011;10997;52.242;8.168;2023-08-30T23:30:45;13.82;;;7.10;;
21671;SDS011;10997;52.242;8.168;2023-08-30T23:35:46;13.60;;;7.00;;
21671;SDS011;10997;52.242;8.168;2023-08-30T23:40:47;18.48;;;7.10;;
21671;SDS011;10997;52.242;8.168;2023-08-30T23:45:48;15.18;;;6.38;;
21671;SDS011;10997;52.242;8.168;2023-08-30T23:50:51;14.82;;;6.70;;
21671;SDS011;10997;52.242;8.168;2023-08-30T23:55:52;15.35;;;6.65;;
